Overview Statistics Trail Chart Weather Telemetry Raw packets
 

This is the latest recevied weather packets stored in our database for station/object N4BBA. If no packets are shown the sender has not sent any weather packets the latest 10 day(s).

<< 28 29 30 31 32 33 34 >>
Time Temp. Humidity Pressure Rain* Wind** Luminosity Snow
1777525126 17.22° C 93% 1008.5 hPa 6.1 mm - 0 W/m² -
1777524823 17.78° C 93% 1008.6 hPa 6.1 mm - 0 W/m² -
1777524521 17.22° C 93% 1008.6 hPa 8.89 mm - 0 W/m² -
1777524218 17.78° C 93% 1009.1 hPa 8.89 mm - 0 W/m² -
1777523913 17.78° C 92% 1008.9 hPa 9.65 mm - 0 W/m² -
1777523611 17.78° C 92% 1009.1 hPa 10.67 mm - 0 W/m² -
1777523311 17.22° C 91% 1009.1 hPa 10.67 mm - 0 W/m² -
1777523002 17.22° C 91% 1008.5 hPa 11.94 mm - 0 W/m² -
1777522701 17.22° C 90% 1008.2 hPa 11.94 mm - 0 W/m² -
1777522396 17.78° C 90% 1008.8 hPa 11.94 mm - 0 W/m² -
1777522094 19.44° C 89% 1008.8 hPa 4.32 mm - 0 W/m² -
1777521790 18.89° C 89% 1008.2 hPa 0 mm - 0 W/m² -
1777521487 19.44° C 89% 1007 hPa 0 mm - 0 W/m² -
1777521184 19.44° C 88% 1007 hPa 0 mm - 0 W/m² -
1777520881 20° C 88% 1007.3 hPa 0 mm - 0 W/m² -
1777520578 20° C 88% 1007.6 hPa 0 mm - 0 W/m² -
1777520275 20° C 87% 1007.2 hPa 0 mm - 0 W/m² -
1777519973 20.56° C 87% 1007.1 hPa 0 mm - 0 W/m² -
1777519670 20.56° C 87% 1007.1 hPa 0 mm - 0 W/m² -
1777519366 20.56° C 87% 1007 hPa 0 mm - 0 W/m² -
1777519063 20.56° C 87% 1007.1 hPa 0 mm - 0 W/m² -
1777518758 20.56° C 87% 1007.2 hPa 0 mm - 0 W/m² -
1777518455 20.56° C 87% 1007.5 hPa 0 mm - 0 W/m² -
1777518150 20.56° C 86% 1007.3 hPa 0 mm - 0 W/m² -
1777517847 20.56° C 86% 1007.4 hPa 0 mm - 0 W/m² -

* Rain latest hour (hover to see other rain measurements)
** Current wind speed in m/s (hover to see current wind gust speed)